Terminal Aerodrome Forecast
Issued by NWS

Home | Current Version | Previous Version | Text Only | Print | Product List | Glossary On
Versions: 1 2 3 4 5 6 7 8 9 10 11 12 13 14
000
FTAK31 PAJN 010530
TAFAGY
TAF
PAGY 010530Z 0106/0206 VRB03KT P6SM VCSH SCT060 OVC080
     FM011000 04010KT P6SM SCT050 BKN100
     FM011500 04013G21KT P6SM SCT100
     FM011800 04015G25KT P6SM SCT150
     FM012100 04011G18KT P6SM BKN150
     FM020300 04008G18KT P6SM BKN100
      AMD LTD TO CLD VIS AND WIND=

USA.gov is the U.S. government's official web portal to all federal, state and local government web resources and services.